sensor_id;sensor_type;location;lat;lon;timestamp;pressure;altitude;pressure_sealevel;temperature;humidity
63190;BME280;49286;44.460;26.114;2024-03-08T00:00:16;101189.31;;;2.86;100.00
63190;BME280;49286;44.460;26.114;2024-03-08T00:02:45;101183.56;;;2.73;100.00
63190;BME280;49286;44.460;26.114;2024-03-08T00:05:11;101180.31;;;2.78;100.00
63190;BME280;49286;44.460;26.114;2024-03-08T00:07:38;101183.09;;;2.82;100.00
63190;BME280;49286;44.460;26.114;2024-03-08T00:10:06;101155.38;;;2.60;100.00
63190;BME280;49286;44.460;26.114;2024-03-08T00:12:32;101173.84;;;2.68;100.00
63190;BME280;49286;44.460;26.114;2024-03-08T00:14:58;101184.75;;;2.80;100.00
63190;BME280;49286;44.460;26.114;2024-03-08T00:17:24;101142.25;;;2.57;100.00
63190;BME280;49286;44.460;26.114;2024-03-08T00:19:52;101175.25;;;2.81;100.00
63190;BME280;49286;44.460;26.114;2024-03-08T00:22:19;101129.28;;;2.56;100.00
63190;BME280;49286;44.460;26.114;2024-03-08T00:24:45;101172.63;;;2.79;100.00
63190;BME280;49286;44.460;26.114;2024-03-08T00:27:11;101127.44;;;2.53;100.00
63190;BME280;49286;44.460;26.114;2024-03-08T00:29:37;101149.00;;;2.73;100.00
63190;BME280;49286;44.460;26.114;2024-03-08T00:32:05;101159.97;;;2.87;100.00
63190;BME280;49286;44.460;26.114;2024-03-08T00:34:35;101117.00;;;2.51;100.00
63190;BME280;49286;44.460;26.114;2024-03-08T00:37:02;101148.94;;;2.71;100.00
63190;BME280;49286;44.460;26.114;2024-03-08T00:39:29;101105.69;;;2.49;100.00
63190;BME280;49286;44.460;26.114;2024-03-08T00:41:55;101156.09;;;2.77;100.00
63190;BME280;49286;44.460;26.114;2024-03-08T00:44:20;101135.50;;;2.80;100.00
63190;BME280;49286;44.460;26.114;2024-03-08T00:46:46;101128.09;;;2.68;100.00
63190;BME280;49286;44.460;26.114;2024-03-08T00:49:12;101087.78;;;2.35;100.00
63190;BME280;49286;44.460;26.114;2024-03-08T00:51:38;101115.41;;;2.55;100.00
63190;BME280;49286;44.460;26.114;2024-03-08T00:54:04;101139.28;;;2.67;100.00
63190;BME280;49286;44.460;26.114;2024-03-08T00:56:30;101134.50;;;2.57;100.00
63190;BME280;49286;44.460;26.114;2024-03-08T00:58:56;101089.53;;;2.36;100.00
63190;BME280;49286;44.460;26.114;2024-03-08T01:01:21;101134.63;;;2.80;100.00
63190;BME280;49286;44.460;26.114;2024-03-08T01:03:47;101145.75;;;2.77;100.00
63190;BME280;49286;44.460;26.114;2024-03-08T01:06:14;101125.09;;;2.79;100.00
63190;BME280;49286;44.460;26.114;2024-03-08T01:08:40;101118.31;;;2.82;100.00
63190;BME280;49286;44.460;26.114;2024-03-08T01:11:08;101090.09;;;2.69;100.00
63190;BME280;49286;44.460;26.114;2024-03-08T01:13:34;101080.28;;;2.62;100.00
63190;BME280;49286;44.460;26.114;2024-03-08T01:16:00;101112.44;;;2.86;100.00
63190;BME280;49286;44.460;26.114;2024-03-08T01:18:25;101103.03;;;2.88;100.00
63190;BME280;49286;44.460;26.114;2024-03-08T01:20:51;101124.75;;;3.11;100.00
63190;BME280;49286;44.460;26.114;2024-03-08T01:23:17;101104.34;;;3.00;100.00
63190;BME280;49286;44.460;26.114;2024-03-08T01:25:42;101097.78;;;3.08;100.00
63190;BME280;49286;44.460;26.114;2024-03-08T01:28:09;101084.25;;;2.94;100.00
63190;BME280;49286;44.460;26.114;2024-03-08T01:30:35;101085.69;;;3.29;100.00
63190;BME280;49286;44.460;26.114;2024-03-08T01:33:02;101080.72;;;3.13;100.00
63190;BME280;49286;44.460;26.114;2024-03-08T01:35:28;101076.34;;;3.12;100.00
63190;BME280;49286;44.460;26.114;2024-03-08T01:37:54;101121.03;;;3.48;100.00
63190;BME280;49286;44.460;26.114;2024-03-08T01:40:20;101115.28;;;3.34;100.00
63190;BME280;49286;44.460;26.114;2024-03-08T01:42:46;101087.22;;;3.24;100.00
63190;BME280;49286;44.460;26.114;2024-03-08T01:45:13;101115.59;;;3.63;100.00
63190;BME280;49286;44.460;26.114;2024-03-08T01:47:39;101111.69;;;3.74;100.00
63190;BME280;49286;44.460;26.114;2024-03-08T01:50:05;101114.88;;;3.46;100.00
63190;BME280;49286;44.460;26.114;2024-03-08T01:52:34;101085.94;;;3.35;100.00
63190;BME280;49286;44.460;26.114;2024-03-08T01:55:03;101089.72;;;3.44;100.00
63190;BME280;49286;44.460;26.114;2024-03-08T01:57:32;101128.44;;;3.39;100.00
63190;BME280;49286;44.460;26.114;2024-03-08T02:00:00;101122.56;;;3.43;100.00
63190;BME280;49286;44.460;26.114;2024-03-08T02:02:28;101086.56;;;3.30;100.00
63190;BME280;49286;44.460;26.114;2024-03-08T02:04:56;101087.81;;;3.61;100.00
63190;BME280;49286;44.460;26.114;2024-03-08T02:07:22;101090.97;;;3.53;100.00
63190;BME280;49286;44.460;26.114;2024-03-08T02:09:48;101127.94;;;3.48;100.00
63190;BME280;49286;44.460;26.114;2024-03-08T02:12:14;101095.00;;;3.24;100.00
63190;BME280;49286;44.460;26.114;2024-03-08T02:14:39;101094.75;;;3.62;100.00
63190;BME280;49286;44.460;26.114;2024-03-08T02:17:05;101119.28;;;3.92;100.00
63190;BME280;49286;44.460;26.114;2024-03-08T02:19:31;101081.91;;;3.87;100.00
63190;BME280;49286;44.460;26.114;2024-03-08T02:21:58;101131.25;;;4.11;100.00
63190;BME280;49286;44.460;26.114;2024-03-08T02:24:24;101093.69;;;4.01;100.00
63190;BME280;49286;44.460;26.114;2024-03-08T02:26:51;101078.94;;;4.00;100.00
63190;BME280;49286;44.460;26.114;2024-03-08T02:29:17;101111.94;;;4.03;100.00
63190;BME280;49286;44.460;26.114;2024-03-08T02:31:45;101076.59;;;3.62;100.00
63190;BME280;49286;44.460;26.114;2024-03-08T02:34:10;101114.91;;;4.14;100.00
63190;BME280;49286;44.460;26.114;2024-03-08T02:36:37;101110.22;;;4.28;100.00
63190;BME280;49286;44.460;26.114;2024-03-08T02:39:04;101112.22;;;4.35;100.00
63190;BME280;49286;44.460;26.114;2024-03-08T02:41:30;101117.66;;;4.17;100.00
63190;BME280;49286;44.460;26.114;2024-03-08T02:43:56;101117.72;;;3.96;100.00
63190;BME280;49286;44.460;26.114;2024-03-08T02:46:22;101081.50;;;3.54;100.00
63190;BME280;49286;44.460;26.114;2024-03-08T02:48:48;101102.81;;;4.14;100.00
63190;BME280;49286;44.460;26.114;2024-03-08T02:51:14;101086.25;;;3.43;100.00
63190;BME280;49286;44.460;26.114;2024-03-08T02:53:41;101076.34;;;3.78;100.00
63190;BME280;49286;44.460;26.114;2024-03-08T02:56:08;101119.94;;;4.09;100.00
63190;BME280;49286;44.460;26.114;2024-03-08T02:58:38;101125.44;;;4.17;100.00
63190;BME280;49286;44.460;26.114;2024-03-08T03:01:03;101116.53;;;3.88;100.00
63190;BME280;49286;44.460;26.114;2024-03-08T03:03:29;101106.50;;;3.52;100.00
63190;BME280;49286;44.460;26.114;2024-03-08T03:05:55;101086.06;;;3.38;100.00
63190;BME280;49286;44.460;26.114;2024-03-08T03:08:21;101116.81;;;3.73;100.00
63190;BME280;49286;44.460;26.114;2024-03-08T03:10:47;101118.78;;;3.35;100.00
63190;BME280;49286;44.460;26.114;2024-03-08T03:13:14;101121.88;;;3.47;100.00
63190;BME280;49286;44.460;26.114;2024-03-08T03:15:40;101120.63;;;3.16;100.00
63190;BME280;49286;44.460;26.114;2024-03-08T03:18:08;101098.81;;;3.11;100.00
63190;BME280;49286;44.460;26.114;2024-03-08T03:20:34;101116.00;;;3.09;100.00
63190;BME280;49286;44.460;26.114;2024-03-08T03:23:06;101109.69;;;3.24;100.00
63190;BME280;49286;44.460;26.114;2024-03-08T03:25:33;101132.34;;;3.28;100.00
63190;BME280;49286;44.460;26.114;2024-03-08T03:28:01;101094.94;;;3.23;100.00
63190;BME280;49286;44.460;26.114;2024-03-08T03:30:27;101086.84;;;2.94;100.00
63190;BME280;49286;44.460;26.114;2024-03-08T03:32:56;101130.66;;;3.30;100.00
63190;BME280;49286;44.460;26.114;2024-03-08T03:35:26;101108.09;;;3.06;100.00
63190;BME280;49286;44.460;26.114;2024-03-08T03:37:51;101085.13;;;2.94;100.00
63190;BME280;49286;44.460;26.114;2024-03-08T03:40:31;101123.25;;;3.18;100.00
63190;BME280;49286;44.460;26.114;2024-03-08T03:42:57;101077.63;;;3.01;100.00
63190;BME280;49286;44.460;26.114;2024-03-08T03:45:23;101123.03;;;3.12;100.00
63190;BME280;49286;44.460;26.114;2024-03-08T03:47:49;101123.06;;;3.13;100.00
63190;BME280;49286;44.460;26.114;2024-03-08T03:50:15;101116.63;;;3.04;100.00
63190;BME280;49286;44.460;26.114;2024-03-08T03:52:41;101087.53;;;2.90;100.00
63190;BME280;49286;44.460;26.114;2024-03-08T03:55:08;101090.13;;;2.90;100.00
63190;BME280;49286;44.460;26.114;2024-03-08T03:57:34;101118.72;;;3.12;100.00
63190;BME280;49286;44.460;26.114;2024-03-08T03:59:59;101127.19;;;3.08;100.00
63190;BME280;49286;44.460;26.114;2024-03-08T04:02:25;101119.00;;;3.19;100.00
63190;BME280;49286;44.460;26.114;2024-03-08T04:04:54;101102.78;;;3.03;100.00
63190;BME280;49286;44.460;26.114;2024-03-08T04:07:20;101092.59;;;3.29;100.00
63190;BME280;49286;44.460;26.114;2024-03-08T04:09:46;101136.22;;;3.18;100.00
63190;BME280;49286;44.460;26.114;2024-03-08T04:12:12;101120.72;;;2.99;100.00
63190;BME280;49286;44.460;26.114;2024-03-08T04:14:41;101100.00;;;2.99;100.00
63190;BME280;49286;44.460;26.114;2024-03-08T04:17:07;101126.75;;;2.98;100.00
63190;BME280;49286;44.460;26.114;2024-03-08T04:19:35;101132.56;;;3.13;100.00
63190;BME280;49286;44.460;26.114;2024-03-08T04:22:01;101124.16;;;3.19;100.00
63190;BME280;49286;44.460;26.114;2024-03-08T04:24:27;101091.06;;;2.92;100.00
63190;BME280;49286;44.460;26.114;2024-03-08T04:26:53;101134.47;;;3.17;100.00
63190;BME280;49286;44.460;26.114;2024-03-08T04:29:20;101090.00;;;3.08;100.00
63190;BME280;49286;44.460;26.114;2024-03-08T04:31:47;101107.00;;;3.01;100.00
63190;BME280;49286;44.460;26.114;2024-03-08T04:34:13;101123.84;;;3.11;100.00
63190;BME280;49286;44.460;26.114;2024-03-08T04:36:38;101130.63;;;2.88;100.00
63190;BME280;49286;44.460;26.114;2024-03-08T04:39:04;101073.44;;;2.62;100.00
63190;BME280;49286;44.460;26.114;2024-03-08T04:41:30;101109.78;;;2.85;100.00
63190;BME280;49286;44.460;26.114;2024-03-08T04:43:56;101112.28;;;3.03;100.00
63190;BME280;49286;44.460;26.114;2024-03-08T04:46:23;101131.22;;;3.02;100.00
63190;BME280;49286;44.460;26.114;2024-03-08T04:48:49;101127.69;;;3.00;100.00
63190;BME280;49286;44.460;26.114;2024-03-08T04:51:15;101105.47;;;2.85;100.00
63190;BME280;49286;44.460;26.114;2024-03-08T04:53:42;101102.69;;;2.81;100.00
63190;BME280;49286;44.460;26.114;2024-03-08T04:56:08;101118.50;;;2.87;100.00
63190;BME280;49286;44.460;26.114;2024-03-08T04:58:35;101141.97;;;3.11;100.00
63190;BME280;49286;44.460;26.114;2024-03-08T05:01:02;101108.53;;;2.96;100.00
63190;BME280;49286;44.460;26.114;2024-03-08T05:03:28;101146.75;;;3.21;100.00
63190;BME280;49286;44.460;26.114;2024-03-08T05:05:55;101133.63;;;2.97;100.00
63190;BME280;49286;44.460;26.114;2024-03-08T05:08:22;101140.47;;;3.16;100.00
63190;BME280;49286;44.460;26.114;2024-03-08T05:10:48;101135.53;;;3.43;100.00
63190;BME280;49286;44.460;26.114;2024-03-08T05:13:13;101149.34;;;3.21;100.00
63190;BME280;49286;44.460;26.114;2024-03-08T05:15:39;101121.66;;;2.80;100.00
63190;BME280;49286;44.460;26.114;2024-03-08T05:18:05;101146.53;;;2.95;100.00
63190;BME280;49286;44.460;26.114;2024-03-08T05:20:32;101132.69;;;2.95;100.00
63190;BME280;49286;44.460;26.114;2024-03-08T05:22:58;101160.78;;;3.26;100.00
63190;BME280;49286;44.460;26.114;2024-03-08T05:25:26;101084.81;;;2.87;100.00
63190;BME280;49286;44.460;26.114;2024-03-08T05:27:52;101162.06;;;3.36;100.00
63190;BME280;49286;44.460;26.114;2024-03-08T05:30:18;101175.78;;;3.33;100.00
63190;BME280;49286;44.460;26.114;2024-03-08T05:32:45;101047.97;;;2.73;100.00
63190;BME280;49286;44.460;26.114;2024-03-08T05:35:12;101159.44;;;3.36;100.00
63190;BME280;49286;44.460;26.114;2024-03-08T05:37:40;101139.34;;;3.09;100.00
63190;BME280;49286;44.460;26.114;2024-03-08T05:40:07;101183.84;;;3.20;100.00
63190;BME280;49286;44.460;26.114;2024-03-08T05:42:38;101148.19;;;3.14;100.00
63190;BME280;49286;44.460;26.114;2024-03-08T05:45:04;101192.28;;;3.77;100.00
63190;BME280;49286;44.460;26.114;2024-03-08T05:47:31;101180.66;;;3.26;100.00
63190;BME280;49286;44.460;26.114;2024-03-08T05:49:58;101201.22;;;3.63;100.00
63190;BME280;49286;44.460;26.114;2024-03-08T05:52:25;101148.69;;;3.48;100.00
63190;BME280;49286;44.460;26.114;2024-03-08T05:54:51;101185.38;;;3.57;100.00
63190;BME280;49286;44.460;26.114;2024-03-08T05:57:17;101200.63;;;3.91;100.00
63190;BME280;49286;44.460;26.114;2024-03-08T05:59:43;101209.63;;;3.78;100.00
63190;BME280;49286;44.460;26.114;2024-03-08T06:02:09;101217.78;;;3.46;100.00
63190;BME280;49286;44.460;26.114;2024-03-08T06:04:36;101170.66;;;2.94;100.00
63190;BME280;49286;44.460;26.114;2024-03-08T06:07:03;101171.28;;;3.50;100.00
63190;BME280;49286;44.460;26.114;2024-03-08T06:09:29;101214.25;;;3.65;100.00
63190;BME280;49286;44.460;26.114;2024-03-08T06:11:55;101216.56;;;4.00;100.00
63190;BME280;49286;44.460;26.114;2024-03-08T06:14:22;101214.00;;;3.37;100.00
63190;BME280;49286;44.460;26.114;2024-03-08T06:16:48;101188.41;;;3.05;100.00
63190;BME280;49286;44.460;26.114;2024-03-08T06:19:15;101201.22;;;3.42;100.00
63190;BME280;49286;44.460;26.114;2024-03-08T06:21:41;101227.56;;;3.95;100.00
63190;BME280;49286;44.460;26.114;2024-03-08T06:24:06;101220.50;;;3.49;100.00
63190;BME280;49286;44.460;26.114;2024-03-08T06:26:32;101210.44;;;3.77;100.00
63190;BME280;49286;44.460;26.114;2024-03-08T06:28:58;101232.53;;;3.89;100.00
63190;BME280;49286;44.460;26.114;2024-03-08T06:31:24;101188.81;;;3.56;100.00
63190;BME280;49286;44.460;26.114;2024-03-08T06:33:49;101222.28;;;4.14;100.00
63190;BME280;49286;44.460;26.114;2024-03-08T06:36:18;101187.28;;;3.61;100.00
63190;BME280;49286;44.460;26.114;2024-03-08T06:38:49;101230.88;;;3.91;100.00
63190;BME280;49286;44.460;26.114;2024-03-08T06:41:15;101221.44;;;3.93;100.00
63190;BME280;49286;44.460;26.114;2024-03-08T06:43:42;101231.69;;;4.33;100.00
63190;BME280;49286;44.460;26.114;2024-03-08T06:46:09;101187.78;;;4.17;100.00
63190;BME280;49286;44.460;26.114;2024-03-08T06:48:35;101191.81;;;4.33;100.00
63190;BME280;49286;44.460;26.114;2024-03-08T06:51:03;101230.97;;;4.60;100.00
63190;BME280;49286;44.460;26.114;2024-03-08T06:53:29;101199.59;;;4.33;100.00
63190;BME280;49286;44.460;26.114;2024-03-08T06:55:55;101198.69;;;4.08;100.00
63190;BME280;49286;44.460;26.114;2024-03-08T06:58:21;101236.56;;;4.48;100.00
63190;BME280;49286;44.460;26.114;2024-03-08T07:00:47;101221.44;;;3.93;100.00
63190;BME280;49286;44.460;26.114;2024-03-08T07:03:17;101187.09;;;4.22;100.00
63190;BME280;49286;44.460;26.114;2024-03-08T07:05:43;101215.19;;;3.88;100.00
63190;BME280;49286;44.460;26.114;2024-03-08T07:08:08;101220.63;;;4.39;100.00
63190;BME280;49286;44.460;26.114;2024-03-08T07:10:34;101197.41;;;3.76;100.00
63190;BME280;49286;44.460;26.114;2024-03-08T07:13:02;101240.19;;;4.29;100.00
63190;BME280;49286;44.460;26.114;2024-03-08T07:15:28;101199.66;;;4.12;100.00
63190;BME280;49286;44.460;26.114;2024-03-08T07:17:54;101240.56;;;4.40;100.00
63190;BME280;49286;44.460;26.114;2024-03-08T07:20:21;101231.91;;;4.62;100.00
63190;BME280;49286;44.460;26.114;2024-03-08T07:22:47;101214.75;;;4.91;100.00
63190;BME280;49286;44.460;26.114;2024-03-08T07:25:19;101236.22;;;5.10;100.00
63190;BME280;49286;44.460;26.114;2024-03-08T07:27:53;101239.38;;;4.77;100.00
63190;BME280;49286;44.460;26.114;2024-03-08T07:30:20;101199.06;;;4.41;100.00
63190;BME280;49286;44.460;26.114;2024-03-08T07:33:05;101203.56;;;4.46;100.00
63190;BME280;49286;44.460;26.114;2024-03-08T07:35:32;101212.56;;;4.31;100.00
63190;BME280;49286;44.460;26.114;2024-03-08T07:37:58;101204.03;;;4.82;100.00
63190;BME280;49286;44.460;26.114;2024-03-08T07:40:25;101228.69;;;5.17;100.00
63190;BME280;49286;44.460;26.114;2024-03-08T07:42:51;101215.50;;;5.13;100.00
63190;BME280;49286;44.460;26.114;2024-03-08T07:45:17;101201.41;;;4.82;100.00
63190;BME280;49286;44.460;26.114;2024-03-08T07:47:43;101198.75;;;5.04;100.00
63190;BME280;49286;44.460;26.114;2024-03-08T07:50:09;101236.72;;;4.99;100.00
63190;BME280;49286;44.460;26.114;2024-03-08T07:52:35;101235.44;;;4.41;100.00
63190;BME280;49286;44.460;26.114;2024-03-08T07:55:04;101205.16;;;3.97;100.00
63190;BME280;49286;44.460;26.114;2024-03-08T07:57:29;101215.16;;;4.78;100.00
63190;BME280;49286;44.460;26.114;2024-03-08T07:59:57;101234.41;;;5.07;100.00
63190;BME280;49286;44.460;26.114;2024-03-08T08:02:22;101163.38;;;4.13;100.00
63190;BME280;49286;44.460;26.114;2024-03-08T08:04:48;101191.25;;;4.17;100.00
63190;BME280;49286;44.460;26.114;2024-03-08T08:07:14;101191.41;;;4.93;100.00
63190;BME280;49286;44.460;26.114;2024-03-08T08:09:41;101224.25;;;5.39;100.00
63190;BME280;49286;44.460;26.114;2024-03-08T08:12:10;101230.63;;;5.48;100.00
63190;BME280;49286;44.460;26.114;2024-03-08T08:14:40;101204.38;;;5.68;100.00
63190;BME280;49286;44.460;26.114;2024-03-08T08:17:08;101229.69;;;5.72;100.00
63190;BME280;49286;44.460;26.114;2024-03-08T08:19:34;101226.78;;;4.88;100.00
63190;BME280;49286;44.460;26.114;2024-03-08T08:22:03;101229.41;;;4.65;100.00
63190;BME280;49286;44.460;26.114;2024-03-08T08:24:29;101236.44;;;4.68;100.00
63190;BME280;49286;44.460;26.114;2024-03-08T08:26:54;101201.00;;;4.47;100.00
63190;BME280;49286;44.460;26.114;2024-03-08T08:29:21;101231.03;;;5.35;100.00
63190;BME280;49286;44.460;26.114;2024-03-08T08:31:48;101234.97;;;5.48;100.00
63190;BME280;49286;44.460;26.114;2024-03-08T08:34:16;101234.88;;;5.72;100.00
63190;BME280;49286;44.460;26.114;2024-03-08T08:36:44;101216.91;;;5.03;100.00
63190;BME280;49286;44.460;26.114;2024-03-08T08:39:10;101189.78;;;5.46;100.00
63190;BME280;49286;44.460;26.114;2024-03-08T08:41:37;101188.59;;;5.63;100.00
63190;BME280;49286;44.460;26.114;2024-03-08T08:44:03;101200.34;;;5.50;100.00
63190;BME280;49286;44.460;26.114;2024-03-08T08:46:29;101181.19;;;5.23;100.00
63190;BME280;49286;44.460;26.114;2024-03-08T08:48:54;101213.16;;;4.71;100.00
63190;BME280;49286;44.460;26.114;2024-03-08T08:51:20;101191.34;;;4.43;100.00
63190;BME280;49286;44.460;26.114;2024-03-08T08:53:46;101203.63;;;4.95;100.00
63190;BME280;49286;44.460;26.114;2024-03-08T08:56:13;101214.72;;;5.66;100.00
63190;BME280;49286;44.460;26.114;2024-03-08T08:58:47;101216.13;;;4.35;100.00
63190;BME280;49286;44.460;26.114;2024-03-08T09:01:14;101216.13;;;4.57;100.00
63190;BME280;49286;44.460;26.114;2024-03-08T09:03:41;101180.03;;;4.65;100.00
63190;BME280;49286;44.460;26.114;2024-03-08T09:06:07;101224.00;;;4.59;100.00
63190;BME280;49286;44.460;26.114;2024-03-08T09:08:36;101187.63;;;5.08;100.00
63190;BME280;49286;44.460;26.114;2024-03-08T09:11:04;101190.13;;;5.57;100.00
63190;BME280;49286;44.460;26.114;2024-03-08T09:13:31;101215.25;;;5.82;100.00
63190;BME280;49286;44.460;26.114;2024-03-08T09:15:56;101187.47;;;5.82;100.00
63190;BME280;49286;44.460;26.114;2024-03-08T09:18:22;101165.56;;;5.76;100.00
63190;BME280;49286;44.460;26.114;2024-03-08T09:20:49;101213.09;;;5.96;100.00
63190;BME280;49286;44.460;26.114;2024-03-08T09:23:19;101216.25;;;5.85;100.00
63190;BME280;49286;44.460;26.114;2024-03-08T09:25:45;101198.69;;;5.03;100.00
63190;BME280;49286;44.460;26.114;2024-03-08T09:28:12;101216.22;;;4.83;100.00
63190;BME280;49286;44.460;26.114;2024-03-08T09:30:40;101209.44;;;4.88;100.00
63190;BME280;49286;44.460;26.114;2024-03-08T09:33:06;101176.50;;;4.87;100.00
63190;BME280;49286;44.460;26.114;2024-03-08T09:35:33;101231.09;;;5.37;100.00
63190;BME280;49286;44.460;26.114;2024-03-08T09:37:59;101223.19;;;5.86;100.00
63190;BME280;49286;44.460;26.114;2024-03-08T09:40:25;101213.88;;;5.93;100.00
63190;BME280;49286;44.460;26.114;2024-03-08T09:42:51;101209.56;;;5.41;100.00
63190;BME280;49286;44.460;26.114;2024-03-08T09:45:20;101185.34;;;5.69;100.00
63190;BME280;49286;44.460;26.114;2024-03-08T09:47:47;101192.94;;;5.90;100.00
63190;BME280;49286;44.460;26.114;2024-03-08T09:50:14;101224.94;;;6.13;100.00
63190;BME280;49286;44.460;26.114;2024-03-08T09:52:41;101223.06;;;5.31;100.00
63190;BME280;49286;44.460;26.114;2024-03-08T09:55:15;101226.13;;;5.96;100.00
63190;BME280;49286;44.460;26.114;2024-03-08T09:57:46;101198.72;;;6.07;100.00
63190;BME280;49286;44.460;26.114;2024-03-08T10:00:33;101230.47;;;5.69;100.00
63190;BME280;49286;44.460;26.114;2024-03-08T10:03:02;101207.31;;;5.26;100.00
63190;BME280;49286;44.460;26.114;2024-03-08T10:05:28;101204.31;;;5.39;100.00
63190;BME280;49286;44.460;26.114;2024-03-08T10:07:54;101239.63;;;5.33;100.00
63190;BME280;49286;44.460;26.114;2024-03-08T10:10:19;101200.59;;;5.07;100.00
63190;BME280;49286;44.460;26.114;2024-03-08T10:12:47;101200.38;;;4.77;100.00
63190;BME280;49286;44.460;26.114;2024-03-08T10:15:16;101206.34;;;4.74;100.00
63190;BME280;49286;44.460;26.114;2024-03-08T10:17:42;101249.56;;;4.48;100.00
63190;BME280;49286;44.460;26.114;2024-03-08T10:20:19;101232.59;;;4.80;100.00
63190;BME280;49286;44.460;26.114;2024-03-08T10:22:45;101215.00;;;5.23;100.00
63190;BME280;49286;44.460;26.114;2024-03-08T10:25:14;101194.84;;;5.43;100.00
63190;BME280;49286;44.460;26.114;2024-03-08T10:27:39;101225.50;;;5.77;100.00
63190;BME280;49286;44.460;26.114;2024-03-08T10:30:12;101233.28;;;5.50;100.00
63190;BME280;49286;44.460;26.114;2024-03-08T10:32:40;101214.50;;;5.86;100.00
63190;BME280;49286;44.460;26.114;2024-03-08T10:35:09;101202.41;;;5.61;100.00
63190;BME280;49286;44.460;26.114;2024-03-08T10:37:45;101240.47;;;5.57;100.00
63190;BME280;49286;44.460;26.114;2024-03-08T10:40:16;101206.91;;;4.90;100.00
63190;BME280;49286;44.460;26.114;2024-03-08T10:43:03;101230.00;;;5.56;100.00
63190;BME280;49286;44.460;26.114;2024-03-08T10:45:39;101219.91;;;5.92;100.00
63190;BME280;49286;44.460;26.114;2024-03-08T10:48:28;101225.00;;;6.15;100.00
63190;BME280;49286;44.460;26.114;2024-03-08T10:50:57;101178.50;;;6.28;100.00
63190;BME280;49286;44.460;26.114;2024-03-08T10:53:26;101185.84;;;6.13;100.00
63190;BME280;49286;44.460;26.114;2024-03-08T10:55:53;101215.19;;;5.80;100.00
63190;BME280;49286;44.460;26.114;2024-03-08T10:58:21;101190.56;;;5.70;100.00
63190;BME280;49286;44.460;26.114;2024-03-08T11:00:48;101172.06;;;5.10;100.00
63190;BME280;49286;44.460;26.114;2024-03-08T11:06:08;101147.09;;;5.68;100.00
63190;BME280;49286;44.460;26.114;2024-03-08T11:08:38;101173.63;;;5.31;100.00
63190;BME280;49286;44.460;26.114;2024-03-08T11:11:04;101162.75;;;5.42;100.00
63190;BME280;49286;44.460;26.114;2024-03-08T11:13:33;101199.44;;;6.31;100.00
63190;BME280;49286;44.460;26.114;2024-03-08T11:16:00;101135.41;;;6.40;100.00
63190;BME280;49286;44.460;26.114;2024-03-08T11:18:26;101150.41;;;6.18;100.00
63190;BME280;49286;44.460;26.114;2024-03-08T11:20:55;101157.41;;;6.49;100.00
63190;BME280;49286;44.460;26.114;2024-03-08T11:23:24;101154.00;;;6.84;100.00
63190;BME280;49286;44.460;26.114;2024-03-08T11:25:51;101180.41;;;7.29;100.00
63190;BME280;49286;44.460;26.114;2024-03-08T11:28:20;101140.16;;;5.68;100.00
63190;BME280;49286;44.460;26.114;2024-03-08T11:33:30;101171.06;;;5.58;100.00
63190;BME280;49286;44.460;26.114;2024-03-08T11:36:11;101175.78;;;5.69;100.00
63190;BME280;49286;44.460;26.114;2024-03-08T11:38:42;101131.69;;;5.74;100.00
63190;BME280;49286;44.460;26.114;2024-03-08T11:41:23;101169.31;;;6.41;100.00
63190;BME280;49286;44.460;26.114;2024-03-08T11:44:02;101144.50;;;5.95;100.00
63190;BME280;49286;44.460;26.114;2024-03-08T11:46:30;101140.38;;;6.02;100.00
63190;BME280;49286;44.460;26.114;2024-03-08T11:48:56;101149.38;;;6.42;100.00
63190;BME280;49286;44.460;26.114;2024-03-08T11:51:23;101134.84;;;5.92;100.00
63190;BME280;49286;44.460;26.114;2024-03-08T11:53:50;101121.09;;;6.55;100.00
63190;BME280;49286;44.460;26.114;2024-03-08T11:56:18;101141.19;;;6.01;100.00
63190;BME280;49286;44.460;26.114;2024-03-08T11:58:56;101117.94;;;6.37;100.00
63190;BME280;49286;44.460;26.114;2024-03-08T12:01:23;101153.97;;;6.82;100.00
63190;BME280;49286;44.460;26.114;2024-03-08T12:03:56;101127.28;;;6.61;100.00
63190;BME280;49286;44.460;26.114;2024-03-08T12:06:24;101140.25;;;6.89;100.00
63190;BME280;49286;44.460;26.114;2024-03-08T12:08:50;101098.31;;;6.18;100.00
63190;BME280;49286;44.460;26.114;2024-03-08T12:11:18;101103.13;;;6.06;100.00
63190;BME280;49286;44.460;26.114;2024-03-08T12:13:49;101143.81;;;6.31;100.00
63190;BME280;49286;44.460;26.114;2024-03-08T12:16:23;101143.63;;;6.23;100.00
63190;BME280;49286;44.460;26.114;2024-03-08T12:18:51;101120.59;;;7.04;100.00
63190;BME280;49286;44.460;26.114;2024-03-08T12:21:18;101095.97;;;7.27;100.00
63190;BME280;49286;44.460;26.114;2024-03-08T12:23:46;101141.91;;;7.55;100.00
63190;BME280;49286;44.460;26.114;2024-03-08T12:26:17;101137.19;;;7.06;100.00
63190;BME280;49286;44.460;26.114;2024-03-08T12:28:45;101138.34;;;7.17;100.00
63190;BME280;49286;44.460;26.114;2024-03-08T12:31:14;101126.78;;;6.74;100.00
63190;BME280;49286;44.460;26.114;2024-03-08T12:33:54;101129.75;;;6.88;100.00
63190;BME280;49286;44.460;26.114;2024-03-08T12:36:20;101090.63;;;6.88;100.00
63190;BME280;49286;44.460;26.114;2024-03-08T12:38:49;101095.34;;;6.69;100.00
63190;BME280;49286;44.460;26.114;2024-03-08T12:41:16;101111.81;;;7.35;100.00
63190;BME280;49286;44.460;26.114;2024-03-08T12:43:43;101090.44;;;7.51;100.00
63190;BME280;49286;44.460;26.114;2024-03-08T12:46:18;101120.81;;;6.78;100.00